Time;durP1;ratioP1;P1;durP2;ratioP2;P2;SDS_P1;SDS_P2;PMS_P1;PMS_P2;Temp;Humidity;BMP_temperature;BMP_pressure;BME280_temperature;BME280_humidity;BME280_pressure;Samples;Min_cycle;Max_cycle;Signal;HPM_P1;HPM_P2
2021/09/16 00:02:10;;;;;;;26.12;16.36;;;;;;;20.18;74.63;100221.25;4787827;61;1142980;-83
2021/09/16 00:07:16;;;;;;;26.90;15.43;;;;;;;20.18;74.67;100216.39;4788080;61;1143167;-82
2021/09/16 00:12:23;;;;;;;28.63;16.77;;;;;;;20.15;74.76;100215.45;4788017;61;1143225;-82
2021/09/16 00:17:29;;;;;;;24.10;15.60;;;;;;;20.12;74.89;100209.11;4787969;61;1143065;-84
2021/09/16 00:22:35;;;;;;;23.18;16.20;;;;;;;20.09;75.05;100202.25;4787792;61;1142939;-82
2021/09/16 00:27:41;;;;;;;23.06;16.42;;;;;;;20.05;75.18;100197.44;4787701;61;1143136;-82
2021/09/16 00:32:46;;;;;;;25.75;15.93;;;;;;;20.02;75.31;100194.11;4787749;61;1142930;-82
2021/09/16 00:37:52;;;;;;;25.77;16.75;;;;;;;20.03;75.38;100189.06;4787683;61;1142917;-82
2021/09/16 00:42:58;;;;;;;20.70;16.48;;;;;;;19.99;75.53;100189.14;4831229;60;1143095;-84
2021/09/16 00:48:04;;;;;;;28.25;17.30;;;;;;;19.96;75.61;100191.36;4863436;60;1143082;-82
2021/09/16 00:53:11;;;;;;;21.52;14.68;;;;;;;19.95;75.72;100188.34;4863392;60;1143058;-82
2021/09/16 00:58:19;;;;;;;24.45;16.48;;;;;;;19.94;75.61;100192.88;4890407;59;1142969;-83
2021/09/16 01:03:26;;;;;;;25.48;16.32;;;;;;;19.91;75.91;100174.97;4894009;59;1143170;-84
2021/09/16 01:08:32;;;;;;;21.55;15.63;;;;;;;19.90;75.80;100175.48;4893829;59;1142973;-82
2021/09/16 01:13:37;;;;;;;19.82;14.55;;;;;;;19.86;75.97;100200.22;4861794;59;1143010;-82
2021/09/16 01:18:43;;;;;;;20.70;15.25;;;;;;;19.73;76.25;100201.36;4893830;59;1143029;-83
2021/09/16 01:23:53;;;;;;;20.32;14.73;;;;;;;19.63;76.65;100199.80;4893788;59;1142915;-84
2021/09/16 01:29:01;;;;;;;22.62;15.50;;;;;;;19.63;77.16;100201.66;4893839;59;1142989;-83
2021/09/16 01:34:10;;;;;;;27.35;16.35;;;;;;;19.62;77.14;100196.80;4893661;59;1142946;-83
2021/09/16 01:39:18;;;;;;;22.10;16.32;;;;;;;19.73;77.50;100190.63;4893911;59;1143164;-81
2021/09/16 01:44:26;;;;;;;25.52;16.30;;;;;;;19.78;77.58;100185.03;4827770;59;1142909;-81
2021/09/16 01:49:33;;;;;;;22.65;15.80;;;;;;;19.80;77.79;100181.66;4816930;60;1143091;-82
2021/09/16 01:54:39;;;;;;;21.20;14.87;;;;;;;19.84;77.82;100175.41;4817195;60;1143171;-82
2021/09/16 01:59:45;;;;;;;25.27;17.23;;;;;;;19.86;77.82;100175.52;4816904;60;1143423;-83
2021/09/16 02:04:51;;;;;;;21.62;17.10;;;;;;;19.85;77.99;100174.40;4817036;60;1142986;-82
2021/09/16 02:09:58;;;;;;;28.15;17.15;;;;;;;19.85;78.09;100180.60;4817026;60;1142973;-83
2021/09/16 02:15:06;;;;;;;24.82;15.80;;;;;;;19.88;78.32;100182.88;4817089;60;1142953;-82
2021/09/16 02:20:13;;;;;;;20.68;16.57;;;;;;;19.88;78.21;100190.10;4817201;60;1143041;-84
2021/09/16 02:25:19;;;;;;;25.04;15.52;;;;;;;19.79;78.54;100188.05;4817722;60;1142896;-84
2021/09/16 02:30:25;;;;;;;25.52;18.37;;;;;;;19.64;78.68;100177.83;4817990;60;1142999;-82
2021/09/16 02:35:32;;;;;;;24.63;16.05;;;;;;;19.62;79.27;100169.97;4818020;60;1142939;-82
2021/09/16 02:40:38;;;;;;;23.98;17.10;;;;;;;19.67;79.56;100168.08;4825761;59;1143031;-84
2021/09/16 02:45:45;;;;;;;21.90;18.23;;;;;;;19.71;79.61;100153.24;4894569;59;1143011;-82
2021/09/16 02:50:51;;;;;;;24.98;18.07;;;;;;;19.72;79.75;100156.25;4894450;59;1143040;-84
2021/09/16 02:55:56;;;;;;;21.35;17.20;;;;;;;19.64;80.03;100150.49;4894268;59;1142872;-83
2021/09/16 03:01:02;;;;;;;24.57;17.05;;;;;;;19.57;80.08;100156.27;4870167;59;1142983;-83
2021/09/16 03:06:09;;;;;;;24.87;20.37;;;;;;;19.55;80.31;100154.31;4827833;60;1143053;-84
2021/09/16 03:11:16;;;;;;;22.70;18.62;;;;;;;19.54;80.74;100148.61;4843501;60;1217409;-83
2021/09/16 03:16:22;;;;;;;25.62;17.48;;;;;;;19.47;80.72;100140.11;4863246;60;1143145;-83
2021/09/16 03:21:28;;;;;;;18.02;16.10;;;;;;;19.45;80.95;100140.29;4863553;60;1142977;-83
2021/09/16 03:26:33;;;;;;;25.52;18.42;;;;;;;19.51;81.19;100146.80;4863390;60;1142933;-85
2021/09/16 03:31:40;;;;;;;30.37;20.40;;;;;;;19.56;81.38;100140.35;4863702;60;1142925;-81
2021/09/16 03:36:46;;;;;;;23.40;18.10;;;;;;;19.55;81.31;100140.06;4863655;60;1143255;-83
2021/09/16 03:41:52;;;;;;;26.27;18.87;;;;;;;19.53;81.24;100134.05;4863736;60;1142975;-82
2021/09/16 03:46:58;;;;;;;26.10;18.65;;;;;;;19.49;81.22;100137.60;4863704;60;1142954;-86
2021/09/16 03:52:06;;;;;;;30.15;19.95;;;;;;;19.45;81.48;100134.09;4863737;60;1143017;-85
2021/09/16 03:57:13;;;;;;;25.55;19.67;;;;;;;19.44;81.77;100125.72;4863573;60;1143086;-82
2021/09/16 04:02:18;;;;;;;30.56;19.16;;;;;;;19.39;81.86;100122.28;4863605;59;1143142;-82
2021/09/16 04:07:24;;;;;;;31.17;17.83;;;;;;;19.37;81.84;100122.13;4863637;60;1143035;-80
2021/09/16 04:12:30;;;;;;;23.22;17.67;;;;;;;19.35;82.07;100126.34;4863501;60;1142902;-80
2021/09/16 04:17:36;;;;;;;21.73;18.80;;;;;;;19.25;82.03;100124.42;4863248;60;1142922;-83
2021/09/16 04:22:42;;;;;;;22.87;18.50;;;;;;;19.18;82.47;100126.19;4863355;60;1143032;-83
2021/09/16 04:27:48;;;;;;;21.65;15.95;;;;;;;19.04;83.00;100127.02;4863425;60;1143440;-83
2021/09/16 04:32:53;;;;;;;25.43;16.43;;;;;;;18.89;83.52;100122.97;4863588;60;1142953;-82
2021/09/16 04:37:59;;;;;;;23.77;18.57;;;;;;;18.77;84.29;100130.62;4863362;60;1143085;-83
2021/09/16 04:43:05;;;;;;;22.00;18.43;;;;;;;18.72;84.67;100133.51;4818369;60;1142932;-80
2021/09/16 04:48:10;;;;;;;20.32;16.42;;;;;;;18.67;85.45;100139.91;4787655;61;1142931;-80
2021/09/16 04:53:16;;;;;;;21.23;17.23;;;;;;;18.61;85.68;100145.50;4787796;60;1143126;-81
2021/09/16 04:58:21;;;;;;;18.13;15.80;;;;;;;18.56;86.47;100147.33;4787650;61;1143012;-79
2021/09/16 05:03:27;;;;;;;30.25;18.98;;;;;;;18.54;87.01;100152.53;4805062;60;1142997;-84
2021/09/16 05:08:33;;;;;;;20.80;14.10;;;;;;;18.52;87.42;100155.39;4817478;60;1143281;-84
2021/09/16 05:13:39;;;;;;;22.07;18.53;;;;;;;18.54;88.64;100161.41;4817114;60;1142855;-81
2021/09/16 05:18:45;;;;;;;24.63;18.35;;;;;;;18.55;89.17;100155.04;4817057;60;1143139;-83
2021/09/16 05:23:50;;;;;;;20.73;17.57;;;;;;;18.54;89.88;100155.22;4816962;60;1143196;-83
2021/09/16 05:28:56;;;;;;;24.63;18.00;;;;;;;18.50;90.35;100159.25;4817020;60;1143097;-80
2021/09/16 05:34:01;;;;;;;27.90;20.30;;;;;;;18.47;91.40;100160.47;4817007;60;1142912;-81
2021/09/16 05:39:09;;;;;;;25.53;18.50;;;;;;;18.45;91.90;100154.45;4817091;60;1143093;-82
2021/09/16 05:44:14;;;;;;;33.67;19.83;;;;;;;18.49;92.04;100153.06;4880487;59;1142941;-83
2021/09/16 05:49:20;;;;;;;25.10;16.70;;;;;;;18.53;92.12;100153.04;4893778;59;1142928;-83
2021/09/16 05:54:26;;;;;;;25.75;19.82;;;;;;;18.58;93.64;100154.72;4893868;59;1143142;-85
2021/09/16 05:59:32;;;;;;;30.08;19.62;;;;;;;18.60;92.65;100155.37;4893844;59;1143166;-84
2021/09/16 06:04:38;;;;;;;28.07;19.77;;;;;;;18.66;92.67;100159.16;4887337;59;1143322;-82
2021/09/16 06:09:43;;;;;;;24.20;18.50;;;;;;;18.69;92.98;100159.31;4885334;59;1143071;-82
2021/09/16 06:14:49;;;;;;;29.30;20.10;;;;;;;18.72;93.21;100157.62;4885572;59;1143145;-82
2021/09/16 06:19:55;;;;;;;33.05;19.10;;;;;;;18.75;93.60;100159.44;4885348;59;1143235;-84
2021/09/16 06:25:00;;;;;;;20.43;15.40;;;;;;;18.78;93.45;100165.78;4885187;59;1143030;-83
2021/09/16 06:30:06;;;;;;;27.35;18.30;;;;;;;18.83;93.83;100166.05;4884262;59;1142971;-83
2021/09/16 06:35:12;;;;;;;24.65;18.48;;;;;;;18.85;93.86;100164.53;4883220;59;1143053;-82
2021/09/16 06:40:19;;;;;;;22.04;16.78;;;;;;;18.90;94.10;100170.20;4881007;59;1143161;-83
2021/09/16 06:45:25;;;;;;;23.47;17.82;;;;;;;18.91;94.68;100171.86;4807240;60;1143103;-81
2021/09/16 06:50:31;;;;;;;29.57;19.65;;;;;;;18.90;94.53;100175.55;4808550;60;1143115;-84
2021/09/16 06:55:37;;;;;;;25.57;19.15;;;;;;;18.92;94.70;100179.73;4808801;59;1143271;-84
2021/09/16 07:00:42;;;;;;;27.58;18.60;;;;;;;18.93;94.86;100174.70;4808558;60;1142995;-81
2021/09/16 07:05:48;;;;;;;24.93;17.80;;;;;;;18.96;94.95;100177.49;4808753;60;1143252;-84
2021/09/16 07:10:54;;;;;;;27.62;19.05;;;;;;;19.00;95.43;100178.80;4808981;60;1143179;-83
2021/09/16 07:16:00;;;;;;;23.98;17.05;;;;;;;19.03;95.34;100178.95;4809256;60;1143252;-83
2021/09/16 07:21:06;;;;;;;23.90;19.60;;;;;;;19.11;96.01;100185.56;4821682;59;1143319;-82
2021/09/16 07:26:12;;;;;;;31.48;22.37;;;;;;;19.15;96.08;100179.66;4865149;59;1143189;-84
2021/09/16 07:31:19;;;;;;;37.03;20.90;;;;;;;19.18;96.72;100186.52;4885675;59;1143154;-85
2021/09/16 07:36:25;;;;;;;30.17;21.65;;;;;;;19.18;97.54;100193.22;4861021;59;1143273;-82
2021/09/16 07:41:30;;;;;;;25.80;18.92;;;;;;;19.17;97.00;100193.72;4861248;59;1143066;-83
2021/09/16 07:46:37;;;;;;;28.40;19.87;;;;;;;19.16;97.85;100198.75;4809211;59;1143231;-83
2021/09/16 07:51:42;;;;;;;29.75;21.60;;;;;;;19.16;97.25;100203.28;4809189;59;1143172;-82
2021/09/16 07:56:48;;;;;;;29.07;17.95;;;;;;;19.14;97.87;100202.13;4808994;59;1143086;-83
2021/09/16 08:01:54;;;;;;;28.35;20.32;;;;;;;19.10;98.83;100204.84;4809136;59;1143277;-85
2021/09/16 08:07:02;;;;;;;24.10;15.13;;;;;;;19.08;99.87;100210.08;4809183;59;1143062;-83
2021/09/16 08:12:08;;;;;;;16.37;12.95;;;;;;;19.10;100.00;100216.06;4809164;59;1143046;-86
2021/09/16 08:17:14;;;;;;;24.52;15.45;;;;;;;19.08;100.00;100216.27;4820723;59;1145417;-81
2021/09/16 08:22:20;;;;;;;14.58;10.43;;;;;;;19.10;99.68;100214.72;4809063;59;1145198;-84
2021/09/16 08:27:26;;;;;;;14.25;11.00;;;;;;;19.11;100.00;100219.91;4809248;59;1143117;-85
2021/09/16 08:32:32;;;;;;;12.33;10.60;;;;;;;19.12;99.99;100223.42;4809101;59;1145152;-83
2021/09/16 08:37:38;;;;;;;11.88;9.23;;;;;;;19.12;100.00;100224.76;4809225;59;1143101;-81
2021/09/16 08:42:45;;;;;;;8.60;7.75;;;;;;;19.10;100.00;100228.95;4848647;59;1143197;-82
2021/09/16 08:47:55;;;;;;;8.10;7.30;;;;;;;19.08;100.00;100225.66;4885563;59;1140929;-83
2021/09/16 08:53:01;;;;;;;7.88;6.66;;;;;;;19.10;100.00;100235.66;4885450;59;1140913;-82
2021/09/16 08:58:09;;;;;;;7.33;6.62;;;;;;;19.10;100.00;100240.19;4885394;59;1141114;-82
2021/09/16 09:03:15;;;;;;;7.80;7.10;;;;;;;19.05;100.00;100246.62;4866187;59;1141173;-81
2021/09/16 09:08:28;;;;;;;16.23;10.48;;;;;;;19.09;100.00;100244.75;4879872;59;1140932;-84
2021/09/16 09:13:41;;;;;;;12.68;10.63;;;;;;;19.10;100.00;100246.38;4853335;60;1145315;-82
2021/09/16 09:18:48;;;;;;;12.88;11.40;;;;;;;19.08;100.00;100247.09;4854253;60;1145101;-81
2021/09/16 09:23:56;;;;;;;12.90;10.28;;;;;;;19.13;100.00;100263.45;4854897;60;1145194;-82
2021/09/16 09:29:15;;;;;;;10.08;9.15;;;;;;;19.16;100.00;100260.42;4854748;60;1145137;-82
2021/09/16 09:34:34;;;;;;;12.37;10.70;;;;;;;19.17;100.00;100267.95;4854831;59;1143087;-82
2021/09/16 09:39:42;;;;;;;11.53;9.93;;;;;;;19.17;100.00;100274.66;4854891;60;1145103;-84
2021/09/16 09:44:48;;;;;;;15.08;10.55;;;;;;;19.20;100.00;100267.60;4783881;60;1143095;-85
2021/09/16 09:49:58;;;;;;;15.72;8.58;;;;;;;19.22;100.00;100269.59;4779325;60;1145244;-81
2021/09/16 09:55:08;;;;;;;9.65;8.43;;;;;;;19.23;99.67;100271.27;4779400;61;1143359;-83
2021/09/16 10:00:18;;;;;;;10.03;7.55;;;;;;;19.25;99.87;100277.25;4788702;60;1139122;-82
2021/09/16 10:05:29;;;;;;;12.13;8.73;;;;;;;19.28;100.00;100270.20;4779122;61;1140959;-82
2021/09/16 10:10:41;;;;;;;8.60;7.70;;;;;;;19.46;100.00;100267.19;4786105;60;1143288;-81
2021/09/16 10:15:53;;;;;;;11.12;7.92;;;;;;;19.83;100.00;100259.63;4807533;59;1141236;-83
2021/09/16 10:21:01;;;;;;;5.93;4.90;;;;;;;20.23;99.56;100265.84;4808121;60;1143086;-82
2021/09/16 10:26:07;;;;;;;7.97;5.87;;;;;;;20.53;97.34;100265.81;4806538;60;1139090;-84
2021/09/16 10:31:24;;;;;;;6.33;5.72;;;;;;;20.76;97.13;100265.14;4806574;59;1139016;-80
2021/09/16 10:36:30;;;;;;;6.75;5.25;;;;;;;20.99;95.80;100279.22;4806500;60;1138932;-81
2021/09/16 10:41:39;;;;;;;9.00;6.00;;;;;;;21.11;94.52;100272.80;4829842;59;1138833;-81
2021/09/16 10:46:47;;;;;;;4.40;3.98;;;;;;;21.20;94.79;100272.20;4883735;59;1139147;-84
2021/09/16 10:52:06;;;;;;;8.93;3.58;;;;;;;21.25;91.71;100273.78;4884484;59;1139002;-81
2021/09/16 10:57:17;;;;;;;10.13;4.92;;;;;;;21.31;89.52;100278.39;4882912;59;1138910;-82
2021/09/16 11:02:35;;;;;;;9.78;4.97;;;;;;;21.20;89.12;100268.17;4886147;59;1141174;-85
2021/09/16 11:07:49;;;;;;;5.20;3.50;;;;;;;21.39;91.25;100269.66;4885885;59;1138931;-85
2021/09/16 11:13:05;;;;;;;3.80;3.50;;;;;;;21.41;89.00;100264.92;4875778;59;1138929;-81
2021/09/16 11:18:14;;;;;;;3.47;3.20;;;;;;;21.43;89.25;100261.20;4850470;60;1138962;-84
2021/09/16 11:23:21;;;;;;;2.98;2.77;;;;;;;21.50;87.23;100261.58;4855768;60;1139010;-83
2021/09/16 11:28:26;;;;;;;5.13;4.00;;;;;;;21.54;86.23;100260.69;4855207;60;1139064;-81
2021/09/16 11:33:32;;;;;;;6.33;3.25;;;;;;;21.50;86.64;100265.62;4854817;60;1138968;-81
2021/09/16 11:38:38;;;;;;;5.05;4.55;;;;;;;21.44;86.27;100267.73;4853536;60;1138860;-84
2021/09/16 11:43:43;;;;;;;6.80;4.30;;;;;;;21.37;86.05;100262.83;4799258;60;1138984;-82
2021/09/16 11:48:49;;;;;;;4.87;4.20;;;;;;;21.33;86.17;100263.73;4778889;60;1138886;-82
2021/09/16 11:53:55;;;;;;;4.65;4.30;;;;;;;21.31;85.91;100263.59;4779897;60;1139051;-81
2021/09/16 11:59:10;;;;;;;6.60;3.70;;;;;;;21.23;85.89;100258.38;4779702;60;1139037;-83
2021/09/16 12:04:15;;;;;;;5.78;4.20;;;;;;;21.21;85.91;100256.39;4780004;60;1139102;-83
2021/09/16 12:09:22;;;;;;;4.73;4.33;;;;;;;21.22;85.83;100259.40;4779955;60;1138931;-84
2021/09/16 12:14:28;;;;;;;4.20;3.80;;;;;;;21.20;85.65;100257.41;4789159;59;1138988;-80
2021/09/16 12:19:35;;;;;;;7.25;4.10;;;;;;;21.22;86.23;100254.85;4809147;59;1138876;-83
2021/09/16 12:24:41;;;;;;;6.70;4.08;;;;;;;21.12;85.30;100257.50;4811037;59;1138929;-84
2021/09/16 12:29:53;;;;;;;6.55;4.78;;;;;;;21.12;85.30;100257.50;4808685;59;1139220;-83
2021/09/16 12:34:54;;;;;;;6.20;5.08;;;;;;;21.05;85.36;100272.25;4808599;59;1139169;-81
2021/09/16 12:40:00;;;;;;;6.05;4.42;;;;;;;20.99;85.66;100269.80;4808964;59;1139078;-80
2021/09/16 12:45:14;;;;;;;4.58;4.28;;;;;;;20.99;85.25;100268.47;4885585;59;1138949;-80
2021/09/16 12:50:24;;;;;;;5.37;4.83;;;;;;;20.97;85.06;100275.05;4885751;59;1139068;-83
2021/09/16 12:55:30;;;;;;;6.87;5.30;;;;;;;20.92;84.99;100270.78;4885928;59;1139352;-82
2021/09/16 13:00:36;;;;;;;10.32;4.72;;;;;;;20.83;84.90;100278.64;4885494;59;1138979;-82
2021/09/16 13:05:42;;;;;;;4.72;4.22;;;;;;;20.66;86.05;100278.88;4884898;59;1141047;-83
2021/09/16 13:10:51;;;;;;;3.52;3.22;;;;;;;20.51;86.61;100279.94;4885535;59;1138978;-81
2021/09/16 13:16:04;;;;;;;3.80;3.50;;;;;;;20.23;86.02;100291.35;4876821;59;1139082;-82
2021/09/16 13:21:05;;;;;;;3.05;2.75;;;;;;;20.00;85.49;100283.93;4853915;60;1138933;-80
2021/09/16 13:26:11;;;;;;;2.70;2.45;;;;;;;19.87;85.44;100275.66;4851323;60;1138977;-80
2021/09/16 13:31:16;;;;;;;3.30;3.10;;;;;;;19.85;84.78;100280.41;4853526;60;1139077;-81
2021/09/16 13:36:22;;;;;;;3.33;3.02;;;;;;;19.87;84.94;100277.01;4844241;60;1138891;-83
2021/09/16 13:41:29;;;;;;;4.05;3.33;;;;;;;19.99;85.24;100280.92;4805618;60;1139000;-83
2021/09/16 13:46:38;;;;;;;4.90;3.50;;;;;;;20.04;84.70;100281.17;4779216;60;1139166;-81
2021/09/16 13:51:42;;;;;;;4.40;4.00;;;;;;;20.03;84.87;100281.69;4778571;60;1138907;-82
2021/09/16 13:56:48;;;;;;;3.47;3.02;;;;;;;19.98;85.05;100285.96;4800062;60;1139009;-81
2021/09/16 14:01:55;;;;;;;3.20;2.75;;;;;;;19.93;83.62;100282.48;4836357;60;1139085;-81
2021/09/16 14:07:01;;;;;;;4.28;2.77;;;;;;;19.88;82.42;100284.87;4853600;60;1138923;-82
2021/09/16 14:12:07;;;;;;;4.05;2.60;;;;;;;19.85;81.80;100286.61;4853760;60;1138841;-81
2021/09/16 14:17:14;;;;;;;3.02;2.83;;;;;;;19.81;81.54;100292.02;4859404;59;1139027;-81
2021/09/16 14:22:21;;;;;;;2.37;2.17;;;;;;;19.87;82.08;100297.14;4885231;59;1139170;-81
2021/09/16 14:27:27;;;;;;;2.92;2.47;;;;;;;19.93;81.80;100299.93;4884843;59;1138959;-82
2021/09/16 14:32:34;;;;;;;2.36;2.16;;;;;;;19.98;80.99;100292.16;4880454;58;1139043;-81
2021/09/16 14:37:40;;;;;;;2.42;2.33;;;;;;;20.06;80.38;100293.91;4869768;59;1138878;-83
2021/09/16 14:42:45;;;;;;;3.30;2.98;;;;;;;20.23;79.55;100287.83;4876409;59;1139194;-81
2021/09/16 14:47:52;;;;;;;6.80;2.62;;;;;;;20.16;78.90;100294.98;4874590;58;1138709;-82
2021/09/16 14:52:58;;;;;;;3.87;3.05;;;;;;;20.16;78.84;100296.33;4873158;59;1138830;-81
2021/09/16 14:58:28;;;;;;;7.45;2.77;;;;;;;20.09;78.64;100299.42;4874600;58;1138950;-83
2021/09/16 15:03:32;;;;;;;8.17;2.87;;;;;;;20.03;79.18;100302.33;4858064;59;1138816;-83
2021/09/16 15:08:38;;;;;;;3.27;2.45;;;;;;;20.01;78.71;100299.02;4875825;58;1138870;-81
2021/09/16 15:13:44;;;;;;;3.72;2.20;;;;;;;19.99;77.94;100301.05;4892952;59;1138701;-82
2021/09/16 15:18:49;;;;;;;3.34;2.20;;;;;;;19.95;77.37;100305.95;4885864;59;1138812;-83
2021/09/16 15:23:59;;;;;;;2.50;2.30;;;;;;;19.93;77.68;100303.12;4870597;60;1138636;-84
2021/09/16 15:29:26;;;;;;;2.25;1.80;;;;;;;19.91;77.80;100306.50;4581087;62;1138882;-82
2021/09/16 15:34:32;;;;;;;2.75;2.22;;;;;;;19.90;77.25;100302.14;4612590;62;1138833;-81
2021/09/16 15:39:40;;;;;;;4.46;4.02;;;;;;;19.87;77.31;100299.31;4599642;62;1138896;-84
2021/09/16 15:44:49;;;;;;;28.02;24.98;;;;;;;19.80;76.90;100298.91;4611122;62;1139126;-84
2021/09/16 15:49:55;;;;;;;2.77;1.82;;;;;;;19.72;77.01;100293.61;4609842;62;1143112;-84
2021/09/16 15:55:03;;;;;;;4.00;1.67;;;;;;;19.63;76.90;100296.90;4610383;62;1138807;-82
2021/09/16 16:00:11;;;;;;;4.10;2.58;;;;;;;19.60;77.22;100301.28;4549394;62;1138878;-84
2021/09/16 16:05:31;;;;;;;1.62;1.52;;;;;;;19.54;77.16;100300.18;4565001;61;1138969;-83
2021/09/16 16:10:36;;;;;;;3.72;1.60;;;;;;;19.47;77.28;100305.06;4676992;61;1138776;-83
2021/09/16 16:15:42;;;;;;;3.02;2.40;;;;;;;19.43;77.30;100305.93;4631406;61;1138852;-83
2021/09/16 16:20:48;;;;;;;4.03;1.52;;;;;;;19.35;77.33;100307.86;4631569;61;1138844;-83
2021/09/16 16:25:55;;;;;;;6.35;1.70;;;;;;;19.24;77.08;100311.31;4690891;61;1138876;-83
2021/09/16 16:31:01;;;;;;;1.85;1.62;;;;;;;19.15;77.38;100318.23;4787944;61;1138884;-83
2021/09/16 16:36:07;;;;;;;2.87;1.60;;;;;;;19.08;77.61;100315.96;4806458;60;1138942;-84
2021/09/16 16:41:13;;;;;;;7.40;1.90;;;;;;;19.04;77.72;100324.86;4827846;60;1138795;-84
2021/09/16 16:46:19;;;;;;;4.05;1.72;;;;;;;18.95;77.53;100320.05;4863592;60;1138763;-84
2021/09/16 16:51:24;;;;;;;3.10;1.87;;;;;;;18.90;77.52;100328.31;4856209;60;1139099;-86
2021/09/16 16:56:30;;;;;;;2.20;1.87;;;;;;;18.83;77.77;100328.17;4852836;60;1139013;-83
2021/09/16 17:01:36;;;;;;;2.30;2.08;;;;;;;18.78;77.95;100330.56;4854137;60;1138933;-82
2021/09/16 17:06:42;;;;;;;5.03;2.42;;;;;;;18.78;77.93;100333.75;4853702;60;1139121;-82
2021/09/16 17:11:48;;;;;;;2.72;1.70;;;;;;;18.72;78.04;100336.61;4853917;60;1139346;-83
2021/09/16 17:16:54;;;;;;;3.22;1.80;;;;;;;18.68;77.91;100331.27;4854789;59;1138821;-83
2021/09/16 17:21:59;;;;;;;2.30;1.80;;;;;;;18.60;77.80;100334.01;4854564;59;1139374;-83
2021/09/16 17:27:05;;;;;;;3.27;2.90;;;;;;;18.51;77.80;100333.67;4854701;60;1138891;-82
2021/09/16 17:32:11;;;;;;;12.58;7.95;;;;;;;18.46;77.95;100336.05;4854158;60;1138949;-83
2021/09/16 17:37:17;;;;;;;22.77;17.73;;;;;;;18.38;78.02;100331.55;4854802;60;1141023;-82
2021/09/16 17:42:23;;;;;;;7.15;5.15;;;;;;;18.30;77.96;100333.44;4854374;60;1143138;-83
2021/09/16 17:47:28;;;;;;;7.20;2.98;;;;;;;18.14;77.99;100339.19;4854682;60;1138985;-81
2021/09/16 17:52:35;;;;;;;3.80;2.87;;;;;;;18.00;77.97;100343.08;4854817;60;1139165;-82
2021/09/16 17:57:43;;;;;;;7.77;5.67;;;;;;;17.90;77.99;100353.45;4851703;60;1138878;-85
2021/09/16 18:02:49;;;;;;;4.80;4.23;;;;;;;17.82;78.06;100363.34;4854224;60;1139149;-83
2021/09/16 18:07:56;;;;;;;8.73;3.63;;;;;;;17.76;78.15;100354.14;4854624;60;1138974;-84
2021/09/16 18:13:03;;;;;;;10.77;5.33;;;;;;;17.72;77.95;100360.83;4854599;60;1139007;-82
2021/09/16 18:18:09;;;;;;;14.67;8.77;;;;;;;17.63;77.76;100354.30;4855060;60;1140982;-82
2021/09/16 18:23:16;;;;;;;12.37;9.47;;;;;;;17.54;77.78;100359.66;4857902;59;1141073;-81
2021/09/16 18:28:21;;;;;;;34.08;28.12;;;;;;;17.46;77.73;100354.30;4885346;59;1141211;-79
2021/09/16 18:33:27;;;;;;;13.15;7.95;;;;;;;17.42;77.45;100358.80;4884192;59;1143023;-79
2021/09/16 18:38:33;;;;;;;6.10;2.77;;;;;;;17.35;77.38;100361.33;4889257;59;1141181;-79
2021/09/16 18:43:39;;;;;;;3.30;1.77;;;;;;;17.30;77.45;100354.80;4893334;59;1138962;-79
2021/09/16 18:48:45;;;;;;;2.77;1.97;;;;;;;17.34;77.41;100356.14;4807026;60;1138988;-79
2021/09/16 18:53:55;;;;;;;6.63;3.77;;;;;;;17.42;77.45;100338.75;4893606;59;1138968;-79
2021/09/16 18:58:58;;;;;;;16.57;5.23;;;;;;;17.52;77.59;100355.48;4891428;59;1139003;-79
2021/09/16 19:04:05;;;;;;;35.93;20.93;;;;;;;17.51;77.05;100357.81;4893972;59;1140859;-78
2021/09/16 19:09:12;;;;;;;14.23;7.70;;;;;;;17.43;76.82;100359.97;4892799;59;1143225;-78
2021/09/16 19:14:18;;;;;;;19.53;12.00;;;;;;;17.33;76.80;100360.65;4883830;59;1141152;-78
2021/09/16 19:19:27;;;;;;;14.00;8.93;;;;;;;17.21;76.56;100368.66;4832213;59;1143091;-78
2021/09/16 19:24:35;;;;;;;5.27;3.27;;;;;;;17.07;76.65;100363.47;4836699;59;1141041;-79
2021/09/16 19:29:41;;;;;;;12.57;7.43;;;;;;;16.92;76.84;100364.27;4837061;59;1138864;-78
2021/09/16 19:34:48;;;;;;;28.37;12.70;;;;;;;16.77;77.28;100363.57;4836693;59;1140905;-79
2021/09/16 19:39:55;;;;;;;14.67;6.43;;;;;;;16.73;77.54;100364.89;4836575;59;1142945;-78
2021/09/16 19:45:01;;;;;;;10.27;3.97;;;;;;;16.75;77.66;100370.06;4829753;59;1140936;-78
2021/09/16 19:50:09;;;;;;;5.80;2.03;;;;;;;16.63;77.67;100367.36;4829691;59;1140820;-78
2021/09/16 19:55:15;;;;;;;3.93;2.23;;;;;;;16.51;77.71;100372.10;4762105;60;1138851;-79
2021/09/16 20:00:20;;;;;;;4.53;2.20;;;;;;;16.20;78.26;100363.78;4830130;59;1138983;-79
2021/09/16 20:05:26;;;;;;;2.85;1.60;;;;;;;16.20;78.26;100363.78;4829988;59;1139255;-78
2021/09/16 20:10:32;;;;;;;2.65;1.70;;;;;;;16.14;78.22;100365.27;4829880;59;1138751;-78
2021/09/16 20:15:38;;;;;;;1.87;1.43;;;;;;;16.01;78.24;100368.87;4829980;59;1138767;-78
2021/09/16 20:20:49;;;;;;;1.60;1.50;;;;;;;15.91;78.45;100365.95;4761959;60;1138967;-78
2021/09/16 20:25:56;;;;;;;1.50;1.40;;;;;;;15.83;78.78;100356.92;4829618;59;1138765;-78
2021/09/16 20:31:03;;;;;;;4.63;1.83;;;;;;;15.77;78.80;100360.70;4773535;59;1139007;-79
2021/09/16 20:36:09;;;;;;;6.87;1.63;;;;;;;15.73;78.90;100358.02;4761924;60;1139153;-78
2021/09/16 20:41:15;;;;;;;2.97;1.70;;;;;;;15.72;78.90;100359.85;4778500;60;1138998;-79
2021/09/16 20:46:21;;;;;;;2.83;1.70;;;;;;;15.67;79.13;100358.63;4836205;60;1138957;-78
2021/09/16 20:51:26;;;;;;;1.62;1.52;;;;;;;15.64;79.27;100350.44;4836229;60;1138827;-78
2021/09/16 20:56:33;;;;;;;2.00;1.83;;;;;;;15.66;79.18;100352.95;4836390;60;1138845;-78
2021/09/16 21:01:39;;;;;;;3.07;1.60;;;;;;;15.61;79.13;100361.91;4836090;60;1138851;-78
2021/09/16 21:06:44;;;;;;;4.63;1.50;;;;;;;15.57;79.36;100358.73;4836121;60;1138990;-78
2021/09/16 21:11:50;;;;;;;5.90;1.70;;;;;;;15.55;79.29;100362.05;4836206;60;1138927;-79
2021/09/16 21:16:56;;;;;;;3.47;2.23;;;;;;;15.60;79.47;100357.56;4836222;60;1138788;-79
2021/09/16 21:22:02;;;;;;;5.70;2.17;;;;;;;15.71;79.86;100356.84;4836022;60;1138989;-78
2021/09/16 21:27:08;;;;;;;2.70;1.67;;;;;;;15.81;79.86;100357.56;4836029;60;1138867;-78
2021/09/16 21:32:15;;;;;;;2.47;1.80;;;;;;;15.77;79.41;100360.20;4689844;61;1138799;-79
2021/09/16 21:37:20;;;;;;;8.10;1.70;;;;;;;15.63;79.39;100356.77;4833695;59;1138793;-78
2021/09/16 21:42:26;;;;;;;3.33;2.22;;;;;;;15.60;79.70;100357.56;4834735;59;1138895;-79
2021/09/16 21:47:31;;;;;;;3.80;1.93;;;;;;;15.61;79.97;100357.91;4834801;59;1138784;-78
2021/09/16 21:52:38;;;;;;;2.70;1.60;;;;;;;15.60;80.22;100355.73;4834661;59;1138789;-79
2021/09/16 21:57:44;;;;;;;1.93;1.73;;;;;;;15.61;80.23;100358.75;4834603;59;1138925;-78
2021/09/16 22:02:50;;;;;;;2.03;1.67;;;;;;;15.59;80.14;100362.55;4834530;59;1138761;-78
2021/09/16 22:07:55;;;;;;;1.70;1.60;;;;;;;15.56;80.31;100357.56;4834341;59;1138860;-78
2021/09/16 22:13:01;;;;;;;3.23;1.83;;;;;;;15.53;80.52;100357.83;4834642;59;1139119;-78
2021/09/16 22:18:07;;;;;;;5.90;2.23;;;;;;;15.49;80.65;100359.95;4834694;59;1138859;-78
2021/09/16 22:23:13;;;;;;;4.60;1.84;;;;;;;15.52;80.81;100356.98;4834535;59;1138996;-78
2021/09/16 22:28:18;;;;;;;7.87;1.90;;;;;;;15.67;81.33;100354.14;4834715;59;1138940;-78
2021/09/16 22:33:29;;;;;;;5.47;2.50;;;;;;;15.81;81.60;100350.91;4834744;59;1138882;-78
2021/09/16 22:38:31;;;;;;;11.90;4.72;;;;;;;15.95;81.49;100351.31;4834197;59;1138748;-78
2021/09/16 22:43:37;;;;;;;4.13;2.00;;;;;;;15.99;80.53;100350.84;4782325;59;1140829;-78
2021/09/16 22:48:43;;;;;;;4.43;1.67;;;;;;;15.99;80.53;100350.84;4760215;60;1138875;-78
2021/09/16 22:53:49;;;;;;;6.43;1.67;;;;;;;15.92;80.24;100356.46;4758242;60;1139027;-78
2021/09/16 22:58:55;;;;;;;3.17;1.53;;;;;;;15.83;80.34;100348.92;4749038;60;1138978;-78